createdAt,value
2023-05-14T00:00:04.942Z,6.40
2023-05-14T00:03:08.835Z,7.07
2023-05-14T00:06:11.381Z,6.93
2023-05-14T00:09:13.902Z,6.38
2023-05-14T00:12:16.225Z,6.88
2023-05-14T00:15:18.497Z,6.30
2023-05-14T00:18:20.871Z,8.13
2023-05-14T00:21:23.607Z,6.60
2023-05-14T00:24:25.880Z,6.28
2023-05-14T00:27:28.242Z,7.10
2023-05-14T00:30:30.553Z,6.45
2023-05-14T00:33:33.155Z,6.80
2023-05-14T00:36:35.638Z,7.35
2023-05-14T00:39:38.031Z,6.63
2023-05-14T00:42:41.010Z,7.40
2023-05-14T00:45:43.381Z,6.20
2023-05-14T00:48:45.701Z,6.60
2023-05-14T00:51:48.079Z,6.55
2023-05-14T00:54:50.747Z,6.20
2023-05-14T00:57:53.538Z,7.03
2023-05-14T01:00:55.922Z,6.25
2023-05-14T01:03:58.385Z,6.57
2023-05-14T01:07:16.916Z,6.10
2023-05-14T01:10:29.036Z,6.55
2023-05-14T01:13:37.630Z,6.63
2023-05-14T01:16:40.112Z,6.10
2023-05-14T01:19:45.649Z,6.27
2023-05-14T01:22:48.046Z,6.07
2023-05-14T01:25:50.358Z,6.30
2023-05-14T01:28:53.277Z,6.18
2023-05-14T01:31:55.847Z,6.50
2023-05-14T01:34:58.651Z,6.70
2023-05-14T01:38:01.909Z,6.45
2023-05-14T01:41:04.306Z,6.00
2023-05-14T01:44:06.736Z,6.00
2023-05-14T01:47:09.048Z,6.03
2023-05-14T01:50:11.395Z,6.17
2023-05-14T01:53:13.718Z,5.63
2023-05-14T01:56:16.031Z,6.53
2023-05-14T01:59:18.470Z,6.35
2023-05-14T02:02:20.828Z,6.15
2023-05-14T02:05:23.178Z,6.23
2023-05-14T02:08:25.691Z,6.32
2023-05-14T02:11:28.035Z,5.95
2023-05-14T02:14:30.368Z,6.13
2023-05-14T02:17:32.747Z,6.70
2023-05-14T02:20:35.093Z,6.40
2023-05-14T02:23:41.696Z,6.18
2023-05-14T02:26:44.530Z,6.60
2023-05-14T02:29:47.418Z,5.38
2023-05-14T02:32:49.897Z,6.00
2023-05-14T02:35:52.386Z,7.20
2023-05-14T02:38:54.678Z,6.43
2023-05-14T02:41:57.576Z,5.78
2023-05-14T02:44:59.979Z,6.32
2023-05-14T02:48:02.407Z,6.07
2023-05-14T02:51:05.891Z,6.27
2023-05-14T02:54:08.271Z,6.13
2023-05-14T02:57:10.687Z,5.65
2023-05-14T03:00:13.383Z,6.00
2023-05-14T03:03:16.159Z,6.20
2023-05-14T03:06:18.702Z,6.17
2023-05-14T03:09:21.111Z,6.57
2023-05-14T03:12:23.436Z,6.10
2023-05-14T03:15:25.893Z,6.40
2023-05-14T03:18:30.653Z,6.35
2023-05-14T03:21:33.099Z,5.90
2023-05-14T03:24:35.588Z,6.57
2023-05-14T03:27:38.332Z,6.30
2023-05-14T03:30:40.693Z,6.25
2023-05-14T03:33:43.025Z,6.60
2023-05-14T03:36:45.371Z,7.17
2023-05-14T03:39:47.732Z,7.47
2023-05-14T03:42:50.115Z,6.90
2023-05-14T03:45:52.843Z,7.25
2023-05-14T03:48:55.469Z,6.60
2023-05-14T03:51:59.469Z,10.83
2023-05-14T03:55:01.860Z,8.88
2023-05-14T03:58:07.437Z,7.32
2023-05-14T04:01:09.788Z,6.15
2023-05-14T04:04:12.327Z,6.32
2023-05-14T04:07:14.677Z,7.37
2023-05-14T04:10:17.088Z,7.32
2023-05-14T04:13:19.433Z,7.25
2023-05-14T04:16:21.775Z,7.07
2023-05-14T04:19:24.105Z,7.47
2023-05-14T04:22:26.396Z,7.43
2023-05-14T04:25:28.765Z,7.03
2023-05-14T04:28:31.128Z,6.28
2023-05-14T04:31:33.565Z,7.10
2023-05-14T04:34:35.892Z,7.00
2023-05-14T04:37:38.321Z,6.60
2023-05-14T04:40:41.548Z,6.65
2023-05-14T04:43:43.832Z,6.65
2023-05-14T04:46:46.129Z,6.30
2023-05-14T04:49:48.505Z,5.97
2023-05-14T04:52:51.119Z,6.67
2023-05-14T04:55:54.187Z,6.35
2023-05-14T04:58:56.486Z,6.00
2023-05-14T05:01:58.791Z,6.50
2023-05-14T05:05:01.312Z,6.43
2023-05-14T05:08:03.724Z,6.57
2023-05-14T05:11:06.105Z,6.50
2023-05-14T05:14:08.384Z,7.05
2023-05-14T05:17:10.805Z,6.38
2023-05-14T05:20:13.432Z,6.35
2023-05-14T05:23:15.832Z,6.90
2023-05-14T05:26:18.132Z,6.50
2023-05-14T05:29:20.436Z,6.45
2023-05-14T05:32:22.850Z,6.47
2023-05-14T05:35:25.186Z,6.22
2023-05-14T05:38:27.513Z,5.97
2023-05-14T05:41:30.353Z,6.05
2023-05-14T05:44:32.660Z,5.20
2023-05-14T05:47:35.050Z,6.30
2023-05-14T05:50:37.429Z,5.65
2023-05-14T05:53:39.754Z,6.77
2023-05-14T05:56:42.153Z,5.88
2023-05-14T05:59:44.470Z,6.00
2023-05-14T06:02:46.885Z,6.05
2023-05-14T06:05:49.296Z,5.93
2023-05-14T06:08:51.713Z,5.37
2023-05-14T06:11:54.052Z,6.10
2023-05-14T06:14:57.890Z,6.15
2023-05-14T06:18:00.365Z,6.40
2023-05-14T06:21:02.991Z,6.20
2023-05-14T06:24:05.608Z,7.07
2023-05-14T06:27:07.939Z,7.07
2023-05-14T06:30:11.392Z,6.25
2023-05-14T06:33:15.061Z,7.20
2023-05-14T06:36:17.364Z,7.47
2023-05-14T06:39:19.679Z,6.87
2023-05-14T06:42:21.958Z,7.18
2023-05-14T06:45:24.351Z,7.38
2023-05-14T06:48:27.920Z,7.00
2023-05-14T06:51:30.784Z,6.50
2023-05-14T06:54:33.101Z,6.77
2023-05-14T06:57:35.404Z,6.88
2023-05-14T07:00:37.753Z,6.90
2023-05-14T07:03:40.125Z,6.10
2023-05-14T07:06:42.444Z,6.05
2023-05-14T07:09:44.768Z,6.67
2023-05-14T07:12:47.095Z,6.00
2023-05-14T07:15:49.481Z,5.40
2023-05-14T07:18:51.903Z,5.78
2023-05-14T07:21:54.404Z,6.03
2023-05-14T07:24:56.747Z,5.77
2023-05-14T07:27:59.081Z,6.47
2023-05-14T07:31:01.495Z,6.13
2023-05-14T07:34:03.882Z,6.45
2023-05-14T07:37:06.182Z,7.13
2023-05-14T07:40:09.253Z,6.87
2023-05-14T07:43:11.588Z,6.63
2023-05-14T07:46:14.376Z,6.43
2023-05-14T07:49:16.674Z,8.40
2023-05-14T07:52:19.030Z,6.70
2023-05-14T07:55:21.443Z,7.10
2023-05-14T07:58:25.108Z,7.32
2023-05-14T08:01:27.717Z,7.68
2023-05-14T08:04:30.093Z,7.63
2023-05-14T08:07:33.718Z,7.80
2023-05-14T08:10:36.110Z,8.63
2023-05-14T08:13:38.490Z,8.88
2023-05-14T08:16:40.907Z,9.13
2023-05-14T08:19:43.345Z,8.73
2023-05-14T08:22:45.703Z,9.70
2023-05-14T08:25:47.989Z,8.87
2023-05-14T08:28:50.514Z,8.45
2023-05-14T08:31:52.844Z,8.40
2023-05-14T08:34:55.175Z,8.50
2023-05-14T08:37:57.530Z,8.23
2023-05-14T08:40:59.911Z,8.23
2023-05-14T08:44:21.380Z,8.35
2023-05-14T08:47:23.927Z,8.43
2023-05-14T08:50:26.563Z,8.50
2023-05-14T08:53:29.093Z,8.88
2023-05-14T08:56:32.614Z,9.80
2023-05-14T08:59:34.951Z,8.25
2023-05-14T09:02:37.486Z,9.80
2023-05-14T09:05:39.831Z,9.48
2023-05-14T09:08:42.317Z,7.90
2023-05-14T09:11:47.472Z,8.40
2023-05-14T09:14:50.130Z,8.68
2023-05-14T09:17:53.222Z,8.07
2023-05-14T09:20:55.892Z,7.88
2023-05-14T09:23:59.385Z,8.30
2023-05-14T09:27:01.903Z,9.10
2023-05-14T09:30:11.797Z,8.88
2023-05-14T09:33:15.053Z,8.88
2023-05-14T09:36:17.426Z,8.82
2023-05-14T09:39:19.756Z,9.45
2023-05-14T09:42:22.076Z,9.00
2023-05-14T09:45:24.420Z,8.57
2023-05-14T09:48:26.792Z,8.95
2023-05-14T09:51:31.549Z,9.98
2023-05-14T09:54:33.857Z,12.65
2023-05-14T09:57:36.757Z,13.50
2023-05-14T10:00:39.142Z,12.02
2023-05-14T10:03:41.435Z,13.68
2023-05-14T10:06:43.742Z,10.77
2023-05-14T10:09:46.040Z,9.38
2023-05-14T10:13:14.830Z,10.00
2023-05-14T10:16:21.241Z,9.30
2023-05-14T10:19:24.336Z,9.90
2023-05-14T10:22:29.544Z,10.05
2023-05-14T10:25:31.874Z,10.18
2023-05-14T10:28:34.351Z,10.67
2023-05-14T10:31:54.183Z,12.15
2023-05-14T10:34:56.730Z,10.88
2023-05-14T10:37:59.324Z,12.35
2023-05-14T10:41:03.131Z,13.23
2023-05-14T10:44:08.532Z,12.53
2023-05-14T10:47:10.843Z,13.48
2023-05-14T10:50:15.097Z,13.43
2023-05-14T10:53:17.440Z,12.50
2023-05-14T10:56:19.785Z,12.75
2023-05-14T10:59:27.463Z,13.37
2023-05-14T11:02:31.901Z,12.10
2023-05-14T11:05:37.249Z,12.48
2023-05-14T11:08:39.815Z,12.75
2023-05-14T11:11:42.136Z,13.20
2023-05-14T11:14:44.460Z,13.53
2023-05-14T11:17:47.592Z,14.13
2023-05-14T11:20:49.965Z,13.63
2023-05-14T11:23:52.307Z,14.10
2023-05-14T11:26:55.808Z,14.03
2023-05-14T11:29:58.255Z,13.43
2023-05-14T11:33:02.093Z,13.93
2023-05-14T11:36:05.065Z,13.57
2023-05-14T11:39:08.018Z,13.32
2023-05-14T11:42:12.403Z,12.57
2023-05-14T11:45:25.123Z,10.37
2023-05-14T11:48:27.434Z,11.77
2023-05-14T11:51:29.755Z,12.07
2023-05-14T11:54:32.721Z,11.60
2023-05-14T11:57:35.061Z,13.07
2023-05-14T12:00:38.935Z,12.33
2023-05-14T12:03:41.852Z,12.25
2023-05-14T12:06:44.256Z,11.95
2023-05-14T12:09:50.831Z,12.40
2023-05-14T12:12:53.184Z,11.88
2023-05-14T12:16:00.405Z,10.70
2023-05-14T12:19:02.933Z,11.70
2023-05-14T12:22:05.482Z,10.63
2023-05-14T12:25:12.527Z,10.05
2023-05-14T12:28:15.942Z,10.93
2023-05-14T12:31:18.300Z,10.70
2023-05-14T12:34:20.789Z,10.95
2023-05-14T12:37:23.131Z,10.50
2023-05-14T12:40:25.818Z,11.43
2023-05-14T12:43:31.605Z,11.32
2023-05-14T12:46:34.410Z,10.27
2023-05-14T12:49:36.824Z,10.45
2023-05-14T12:52:39.919Z,11.15
2023-05-14T12:55:42.467Z,12.73
2023-05-14T12:58:46.729Z,12.10
2023-05-14T13:01:49.065Z,11.33
2023-05-14T13:04:51.414Z,10.82
2023-05-14T13:07:53.930Z,10.82
2023-05-14T13:10:56.379Z,10.75
2023-05-14T13:13:59.342Z,11.57
2023-05-14T13:17:01.742Z,11.20
2023-05-14T13:20:04.848Z,11.73
2023-05-14T13:23:07.267Z,11.60
2023-05-14T13:26:09.931Z,12.45
2023-05-14T13:29:12.521Z,11.65
2023-05-14T13:32:14.840Z,10.80
2023-05-14T13:35:17.169Z,11.90
2023-05-14T13:38:19.447Z,11.02
2023-05-14T13:41:22.372Z,11.38
2023-05-14T13:44:24.736Z,10.32
2023-05-14T13:47:27.139Z,9.60
2023-05-14T13:50:29.492Z,11.25
2023-05-14T13:53:31.827Z,11.50
2023-05-14T13:56:34.121Z,10.07
2023-05-14T13:59:36.446Z,9.90
2023-05-14T14:02:38.785Z,9.63
2023-05-14T14:05:41.207Z,8.55
2023-05-14T14:08:43.513Z,8.45
2023-05-14T14:11:45.877Z,8.65
2023-05-14T14:14:48.142Z,8.95
2023-05-14T14:17:50.599Z,9.50
2023-05-14T14:20:52.921Z,10.15
2023-05-14T14:23:55.231Z,10.40
2023-05-14T14:26:57.595Z,10.02
2023-05-14T14:29:59.928Z,9.52
2023-05-14T14:33:02.382Z,10.73
2023-05-14T14:36:05.503Z,10.98
2023-05-14T14:39:07.839Z,10.95
2023-05-14T14:42:10.445Z,11.80
2023-05-14T14:45:12.861Z,10.38
2023-05-14T14:48:26.480Z,11.00
2023-05-14T14:51:30.333Z,11.40
2023-05-14T14:54:32.715Z,10.52
2023-05-14T14:57:35.054Z,10.45
2023-05-14T15:00:37.856Z,10.82
2023-05-14T15:03:40.812Z,10.67
2023-05-14T15:06:43.154Z,9.77
2023-05-14T15:09:45.434Z,12.75
2023-05-14T15:12:48.126Z,10.35
2023-05-14T15:15:50.725Z,10.18
2023-05-14T15:18:53.092Z,10.90
2023-05-14T15:21:55.597Z,8.73
2023-05-14T15:24:57.888Z,10.05
2023-05-14T15:28:00.227Z,9.43
2023-05-14T15:31:02.692Z,9.57
2023-05-14T15:34:05.104Z,17.27
2023-05-14T15:37:07.501Z,11.82
2023-05-14T15:40:13.428Z,9.02
2023-05-14T15:43:15.794Z,9.13
2023-05-14T15:46:18.087Z,9.02
2023-05-14T15:49:20.533Z,8.57
2023-05-14T15:52:22.966Z,9.65
2023-05-14T15:55:25.413Z,9.38
2023-05-14T15:58:27.697Z,9.70
2023-05-14T16:01:29.991Z,10.77
2023-05-14T16:04:32.296Z,9.33
2023-05-14T16:07:34.647Z,8.60
2023-05-14T16:10:36.977Z,9.50
2023-05-14T16:13:41.610Z,8.80
2023-05-14T16:16:44.030Z,9.65
2023-05-14T16:19:46.388Z,9.07
2023-05-14T16:22:48.720Z,9.80
2023-05-14T16:25:51.008Z,10.18
2023-05-14T16:28:53.322Z,10.10
2023-05-14T16:31:55.697Z,10.88
2023-05-14T16:34:58.341Z,10.63
2023-05-14T16:38:00.713Z,10.15
2023-05-14T16:41:03.179Z,9.80
2023-05-14T16:44:05.513Z,10.75
2023-05-14T16:47:07.862Z,10.20
2023-05-14T16:50:10.447Z,9.97
2023-05-14T16:53:12.734Z,10.55
2023-05-14T16:56:15.044Z,10.45
2023-05-14T16:59:17.429Z,10.52
2023-05-14T17:02:19.740Z,10.80
2023-05-14T17:05:22.214Z,11.17
2023-05-14T17:08:24.640Z,10.90
2023-05-14T17:11:26.928Z,10.80
2023-05-14T17:14:29.342Z,14.70
2023-05-14T17:17:32.679Z,24.08
2023-05-14T17:20:35.084Z,33.73
2023-05-14T17:23:37.736Z,35.95
2023-05-14T17:26:40.101Z,17.30
2023-05-14T17:29:42.830Z,14.90
2023-05-14T17:32:45.268Z,15.80
2023-05-14T17:35:48.166Z,14.03
2023-05-14T17:38:50.594Z,13.68
2023-05-14T17:41:52.945Z,11.45
2023-05-14T17:44:55.253Z,12.13
2023-05-14T17:47:57.623Z,11.80
2023-05-14T17:51:00.040Z,11.90
2023-05-14T17:54:02.330Z,12.88
2023-05-14T17:57:04.777Z,10.85
2023-05-14T18:00:09.552Z,11.27
2023-05-14T18:03:15.176Z,11.95
2023-05-14T18:06:17.566Z,30.23
2023-05-14T18:09:19.894Z,23.70
2023-05-14T18:12:22.270Z,23.20
2023-05-14T18:15:25.854Z,33.50
2023-05-14T18:18:28.377Z,35.88
2023-05-14T18:21:30.918Z,29.87
2023-05-14T18:24:33.244Z,21.77
2023-05-14T18:27:37.510Z,18.92
2023-05-14T18:30:39.843Z,35.97
2023-05-14T18:33:42.163Z,24.20
2023-05-14T18:36:44.544Z,14.27
2023-05-14T18:39:46.863Z,13.15
2023-05-14T18:42:49.210Z,12.50
2023-05-14T18:45:51.577Z,11.52
2023-05-14T18:48:53.901Z,11.82
2023-05-14T18:51:56.203Z,12.37
2023-05-14T18:54:58.493Z,13.13
2023-05-14T18:58:01.335Z,11.98
2023-05-14T19:01:03.714Z,13.13
2023-05-14T19:04:06.395Z,12.65
2023-05-14T19:07:08.836Z,12.17
2023-05-14T19:10:11.221Z,12.13
2023-05-14T19:13:13.558Z,12.25
2023-05-14T19:16:16.254Z,11.60
2023-05-14T19:19:18.699Z,11.18
2023-05-14T19:22:21.022Z,11.03
2023-05-14T19:25:23.357Z,11.10
2023-05-14T19:28:25.660Z,11.13
2023-05-14T19:31:28.180Z,11.25
2023-05-14T19:34:31.008Z,10.60
2023-05-14T19:37:33.338Z,11.13
2023-05-14T19:40:35.762Z,11.30
2023-05-14T19:43:38.084Z,11.45
2023-05-14T19:46:40.670Z,12.85
2023-05-14T19:49:43.035Z,12.55
2023-05-14T19:52:45.351Z,13.40
2023-05-14T19:55:47.692Z,12.48
2023-05-14T19:58:50.033Z,12.70
2023-05-14T20:01:54.540Z,12.68
2023-05-14T20:04:58.047Z,13.13
2023-05-14T20:08:00.388Z,12.80
2023-05-14T20:11:03.344Z,13.20
2023-05-14T20:14:05.843Z,12.77
2023-05-14T20:17:08.274Z,12.85
2023-05-14T20:20:12.068Z,13.10
2023-05-14T20:23:14.406Z,12.43
2023-05-14T20:26:16.754Z,13.63
2023-05-14T20:29:19.079Z,13.43
2023-05-14T20:32:25.533Z,13.15
2023-05-14T20:35:27.949Z,13.85
2023-05-14T20:38:31.348Z,13.80
2023-05-14T20:41:33.639Z,12.93
2023-05-14T20:44:35.931Z,11.80
2023-05-14T20:47:38.377Z,12.85
2023-05-14T20:50:40.822Z,12.97
2023-05-14T20:53:43.150Z,14.03
2023-05-14T20:56:45.674Z,13.70
2023-05-14T20:59:49.051Z,14.00
2023-05-14T21:02:51.586Z,13.90
2023-05-14T21:05:56.011Z,14.07
2023-05-14T21:08:58.325Z,14.57
2023-05-14T21:12:00.695Z,15.18
2023-05-14T21:15:03.246Z,12.43
2023-05-14T21:18:05.697Z,13.52
2023-05-14T21:21:08.029Z,13.25
2023-05-14T21:24:10.343Z,14.33
2023-05-14T21:27:12.722Z,12.07
2023-05-14T21:30:15.418Z,13.05
2023-05-14T21:33:17.808Z,13.57
2023-05-14T21:36:21.195Z,13.85
2023-05-14T21:39:23.523Z,13.40
2023-05-14T21:42:25.918Z,13.35
2023-05-14T21:45:28.606Z,14.02
2023-05-14T21:48:31.298Z,14.20
2023-05-14T21:51:33.761Z,14.82
2023-05-14T21:54:36.059Z,14.57
2023-05-14T21:57:38.345Z,13.55
2023-05-14T22:00:41.256Z,13.93
2023-05-14T22:03:43.659Z,14.88
2023-05-14T22:06:46.092Z,13.10
2023-05-14T22:09:49.349Z,14.17
2023-05-14T22:12:52.441Z,13.73
2023-05-14T22:16:01.451Z,13.43
2023-05-14T22:19:16.515Z,13.27
2023-05-14T22:22:18.975Z,14.20
2023-05-14T22:25:21.291Z,14.13
2023-05-14T22:28:23.785Z,14.05
2023-05-14T22:31:26.126Z,14.45
2023-05-14T22:34:28.491Z,15.07
2023-05-14T22:37:30.840Z,14.55
2023-05-14T22:40:33.152Z,15.27
2023-05-14T22:43:35.485Z,15.75
2023-05-14T22:46:37.841Z,15.52
2023-05-14T22:49:40.714Z,15.55
2023-05-14T22:52:43.077Z,14.80
2023-05-14T22:55:45.660Z,16.17
2023-05-14T22:58:48.083Z,18.88
2023-05-14T23:01:50.509Z,17.08
2023-05-14T23:04:52.981Z,15.30
2023-05-14T23:07:55.567Z,14.40
2023-05-14T23:10:57.871Z,15.20
2023-05-14T23:14:00.841Z,15.27
2023-05-14T23:17:03.257Z,15.38
2023-05-14T23:20:06.122Z,14.68
2023-05-14T23:23:08.476Z,15.02
2023-05-14T23:26:10.852Z,14.80
2023-05-14T23:29:13.171Z,15.93
2023-05-14T23:32:15.552Z,15.30
2023-05-14T23:35:17.938Z,15.10
2023-05-14T23:38:20.280Z,14.75
2023-05-14T23:41:22.640Z,15.67
2023-05-14T23:44:25.029Z,15.10
2023-05-14T23:47:27.413Z,14.57
2023-05-14T23:50:29.752Z,14.88
2023-05-14T23:53:32.122Z,15.48
2023-05-14T23:56:34.480Z,15.63
2023-05-14T23:59:36.920Z,14.25
